Kugluktuk, Canada
Current Conditions -  °F | °C
As of 9:00 AM on Wednesday 26 Nov 2014 (Local Time) from CYCO Reporting Station
Blowing Snow Blowing Snow  
Wind Chill: -35°   Ceiling: Unl
Heat Index: -9°   Visibility: 8mi
Dew Point: -15°   Wind: 22mph
Humidity: 77%   Direction: 300°WNW
Pressure: 30.21"   Gusts: NA
Location:  67.83°N, 115.08°W
Report Text: CYCO 261600Z 30019KT 8SM DRSN SCT040 M23/M26 A3021 RMK SC2SLP235
Loading
Personal Weather Stations






























Interactive Weather Map New forecast layout! Learn more

10-Day Weather Forecast

Advertisements
Track Severe Weather on mobile